sensor_id;sensor_type;location;lat;lon;timestamp;P1;durP1;ratioP1;P2;durP2;ratioP2
3261;SDS011;1643;47.746;9.000;2023-06-22T00:00:52;8.70;;;5.77;;
3261;SDS011;1643;47.746;9.000;2023-06-22T00:03:19;11.40;;;5.70;;
3261;SDS011;1643;47.746;9.000;2023-06-22T00:05:45;9.23;;;5.20;;
3261;SDS011;1643;47.746;9.000;2023-06-22T00:08:12;11.73;;;6.40;;
3261;SDS011;1643;47.746;9.000;2023-06-22T00:10:38;12.83;;;5.50;;
3261;SDS011;1643;47.746;9.000;2023-06-22T00:13:04;10.83;;;6.47;;
3261;SDS011;1643;47.746;9.000;2023-06-22T00:15:32;6.30;;;4.50;;
3261;SDS011;1643;47.746;9.000;2023-06-22T00:17:58;9.87;;;5.73;;
3261;SDS011;1643;47.746;9.000;2023-06-22T00:20:24;8.07;;;4.67;;
3261;SDS011;1643;47.746;9.000;2023-06-22T00:22:54;12.40;;;5.10;;
3261;SDS011;1643;47.746;9.000;2023-06-22T00:25:20;12.73;;;5.63;;
3261;SDS011;1643;47.746;9.000;2023-06-22T00:27:46;8.00;;;5.77;;
3261;SDS011;1643;47.746;9.000;2023-06-22T00:30:12;8.50;;;5.40;;
3261;SDS011;1643;47.746;9.000;2023-06-22T00:32:38;8.20;;;5.30;;
3261;SDS011;1643;47.746;9.000;2023-06-22T00:35:04;9.00;;;5.70;;
3261;SDS011;1643;47.746;9.000;2023-06-22T00:37:30;11.20;;;4.73;;
3261;SDS011;1643;47.746;9.000;2023-06-22T00:39:56;11.23;;;5.70;;
3261;SDS011;1643;47.746;9.000;2023-06-22T00:42:22;10.03;;;5.40;;
3261;SDS011;1643;47.746;9.000;2023-06-22T00:44:48;8.10;;;5.60;;
3261;SDS011;1643;47.746;9.000;2023-06-22T00:47:14;10.67;;;5.73;;
3261;SDS011;1643;47.746;9.000;2023-06-22T00:49:41;8.73;;;4.77;;
3261;SDS011;1643;47.746;9.000;2023-06-22T00:52:08;7.93;;;6.00;;
3261;SDS011;1643;47.746;9.000;2023-06-22T00:54:38;6.60;;;5.30;;
3261;SDS011;1643;47.746;9.000;2023-06-22T00:57:10;11.33;;;5.47;;
3261;SDS011;1643;47.746;9.000;2023-06-22T00:59:40;10.83;;;4.57;;
3261;SDS011;1643;47.746;9.000;2023-06-22T01:02:10;9.43;;;5.30;;
3261;SDS011;1643;47.746;9.000;2023-06-22T01:04:37;11.67;;;5.90;;
3261;SDS011;1643;47.746;9.000;2023-06-22T01:12:51;10.70;;;5.10;;
3261;SDS011;1643;47.746;9.000;2023-06-22T01:18:24;12.20;;;5.23;;
3261;SDS011;1643;47.746;9.000;2023-06-22T01:20:53;6.20;;;5.10;;
3261;SDS011;1643;47.746;9.000;2023-06-22T01:26:20;7.67;;;5.40;;
3261;SDS011;1643;47.746;9.000;2023-06-22T01:28:54;10.43;;;4.80;;
3261;SDS011;1643;47.746;9.000;2023-06-22T01:31:23;7.53;;;5.80;;
3261;SDS011;1643;47.746;9.000;2023-06-22T01:33:53;8.53;;;4.83;;
3261;SDS011;1643;47.746;9.000;2023-06-22T01:36:20;13.13;;;5.10;;
3261;SDS011;1643;47.746;9.000;2023-06-22T01:38:47;9.63;;;5.30;;
3261;SDS011;1643;47.746;9.000;2023-06-22T01:41:14;9.50;;;5.57;;
3261;SDS011;1643;47.746;9.000;2023-06-22T01:43:41;10.23;;;5.07;;
3261;SDS011;1643;47.746;9.000;2023-06-22T01:46:08;12.30;;;5.70;;
3261;SDS011;1643;47.746;9.000;2023-06-22T01:48:35;7.90;;;5.40;;
3261;SDS011;1643;47.746;9.000;2023-06-22T01:51:01;9.93;;;5.80;;
3261;SDS011;1643;47.746;9.000;2023-06-22T01:53:27;7.20;;;5.40;;
3261;SDS011;1643;47.746;9.000;2023-06-22T01:55:53;5.63;;;5.03;;
3261;SDS011;1643;47.746;9.000;2023-06-22T01:58:19;14.53;;;5.97;;
3261;SDS011;1643;47.746;9.000;2023-06-22T02:00:51;11.23;;;5.57;;
3261;SDS011;1643;47.746;9.000;2023-06-22T02:03:23;9.40;;;5.13;;
3261;SDS011;1643;47.746;9.000;2023-06-22T02:06:03;7.90;;;5.20;;
3261;SDS011;1643;47.746;9.000;2023-06-22T02:08:35;12.00;;;5.47;;
3261;SDS011;1643;47.746;9.000;2023-06-22T02:11:06;7.30;;;5.60;;
3261;SDS011;1643;47.746;9.000;2023-06-22T02:13:34;9.03;;;5.90;;
3261;SDS011;1643;47.746;9.000;2023-06-22T02:16:01;8.80;;;6.17;;
3261;SDS011;1643;47.746;9.000;2023-06-22T02:18:27;10.77;;;6.30;;
3261;SDS011;1643;47.746;9.000;2023-06-22T02:20:53;8.57;;;5.17;;
3261;SDS011;1643;47.746;9.000;2023-06-22T02:23:18;7.80;;;5.30;;
3261;SDS011;1643;47.746;9.000;2023-06-22T02:25:44;13.60;;;4.80;;
3261;SDS011;1643;47.746;9.000;2023-06-22T02:28:10;10.83;;;5.83;;
3261;SDS011;1643;47.746;9.000;2023-06-22T02:30:36;12.00;;;5.20;;
3261;SDS011;1643;47.746;9.000;2023-06-22T02:33:01;5.80;;;4.40;;
3261;SDS011;1643;47.746;9.000;2023-06-22T02:35:27;6.73;;;5.17;;
3261;SDS011;1643;47.746;9.000;2023-06-22T02:37:59;7.87;;;4.80;;
3261;SDS011;1643;47.746;9.000;2023-06-22T02:40:25;8.40;;;4.80;;
3261;SDS011;1643;47.746;9.000;2023-06-22T02:42:51;12.30;;;5.60;;
3261;SDS011;1643;47.746;9.000;2023-06-22T02:45:17;9.90;;;4.87;;
3261;SDS011;1643;47.746;9.000;2023-06-22T02:47:43;9.93;;;5.60;;
3261;SDS011;1643;47.746;9.000;2023-06-22T02:50:09;9.17;;;4.80;;
3261;SDS011;1643;47.746;9.000;2023-06-22T02:52:34;7.03;;;5.23;;
3261;SDS011;1643;47.746;9.000;2023-06-22T02:55:00;7.97;;;5.20;;
3261;SDS011;1643;47.746;9.000;2023-06-22T02:57:26;16.23;;;5.30;;
3261;SDS011;1643;47.746;9.000;2023-06-22T02:59:52;7.23;;;5.20;;
3261;SDS011;1643;47.746;9.000;2023-06-22T03:02:17;8.63;;;5.80;;
3261;SDS011;1643;47.746;9.000;2023-06-22T03:04:45;7.23;;;5.17;;
3261;SDS011;1643;47.746;9.000;2023-06-22T03:07:14;9.87;;;4.80;;
3261;SDS011;1643;47.746;9.000;2023-06-22T03:09:40;10.10;;;5.97;;
3261;SDS011;1643;47.746;9.000;2023-06-22T03:12:07;12.00;;;6.40;;
3261;SDS011;1643;47.746;9.000;2023-06-22T03:14:33;12.07;;;6.60;;
3261;SDS011;1643;47.746;9.000;2023-06-22T03:16:58;7.73;;;5.80;;
3261;SDS011;1643;47.746;9.000;2023-06-22T03:19:28;7.77;;;6.00;;
3261;SDS011;1643;47.746;9.000;2023-06-22T03:21:54;10.43;;;5.27;;
3261;SDS011;1643;47.746;9.000;2023-06-22T03:24:20;6.60;;;5.17;;
3261;SDS011;1643;47.746;9.000;2023-06-22T03:26:46;6.63;;;5.17;;
3261;SDS011;1643;47.746;9.000;2023-06-22T03:29:12;8.93;;;5.30;;
3261;SDS011;1643;47.746;9.000;2023-06-22T03:31:37;9.17;;;5.13;;
3261;SDS011;1643;47.746;9.000;2023-06-22T03:34:03;12.67;;;5.10;;
3261;SDS011;1643;47.746;9.000;2023-06-22T03:36:29;11.17;;;5.77;;
3261;SDS011;1643;47.746;9.000;2023-06-22T03:38:55;8.37;;;5.63;;
3261;SDS011;1643;47.746;9.000;2023-06-22T03:41:21;8.20;;;4.57;;
3261;SDS011;1643;47.746;9.000;2023-06-22T03:43:46;8.97;;;5.03;;
3261;SDS011;1643;47.746;9.000;2023-06-22T03:46:12;7.17;;;5.67;;
3261;SDS011;1643;47.746;9.000;2023-06-22T03:48:38;9.23;;;5.37;;
3261;SDS011;1643;47.746;9.000;2023-06-22T03:51:03;12.93;;;5.97;;
3261;SDS011;1643;47.746;9.000;2023-06-22T03:53:29;6.43;;;4.90;;
3261;SDS011;1643;47.746;9.000;2023-06-22T03:55:55;8.13;;;4.80;;
3261;SDS011;1643;47.746;9.000;2023-06-22T03:58:21;6.50;;;4.60;;
3261;SDS011;1643;47.746;9.000;2023-06-22T04:00:47;14.83;;;5.87;;
3261;SDS011;1643;47.746;9.000;2023-06-22T04:03:14;11.10;;;6.07;;
3261;SDS011;1643;47.746;9.000;2023-06-22T04:05:40;7.00;;;4.73;;
3261;SDS011;1643;47.746;9.000;2023-06-22T04:08:07;9.13;;;5.10;;
3261;SDS011;1643;47.746;9.000;2023-06-22T04:10:33;7.70;;;4.63;;
3261;SDS011;1643;47.746;9.000;2023-06-22T04:12:59;12.77;;;5.50;;
3261;SDS011;1643;47.746;9.000;2023-06-22T04:15:24;9.90;;;5.17;;
3261;SDS011;1643;47.746;9.000;2023-06-22T04:17:50;8.60;;;6.07;;
3261;SDS011;1643;47.746;9.000;2023-06-22T04:20:16;6.53;;;4.90;;
3261;SDS011;1643;47.746;9.000;2023-06-22T04:22:42;11.23;;;5.93;;
3261;SDS011;1643;47.746;9.000;2023-06-22T04:25:08;9.20;;;5.57;;
3261;SDS011;1643;47.746;9.000;2023-06-22T04:27:34;6.83;;;4.77;;
3261;SDS011;1643;47.746;9.000;2023-06-22T04:30:05;8.17;;;5.10;;
3261;SDS011;1643;47.746;9.000;2023-06-22T04:32:32;7.33;;;5.70;;
3261;SDS011;1643;47.746;9.000;2023-06-22T04:34:58;9.97;;;5.57;;
3261;SDS011;1643;47.746;9.000;2023-06-22T04:37:25;8.37;;;5.70;;
3261;SDS011;1643;47.746;9.000;2023-06-22T04:39:51;11.20;;;6.13;;
3261;SDS011;1643;47.746;9.000;2023-06-22T04:42:17;5.57;;;4.83;;
3261;SDS011;1643;47.746;9.000;2023-06-22T04:44:42;6.40;;;4.70;;
3261;SDS011;1643;47.746;9.000;2023-06-22T04:47:08;10.17;;;5.47;;
3261;SDS011;1643;47.746;9.000;2023-06-22T04:49:34;5.90;;;5.40;;
3261;SDS011;1643;47.746;9.000;2023-06-22T04:52:08;16.00;;;5.63;;
3261;SDS011;1643;47.746;9.000;2023-06-22T04:54:36;10.10;;;5.33;;
3261;SDS011;1643;47.746;9.000;2023-06-22T04:57:03;8.97;;;5.60;;
3261;SDS011;1643;47.746;9.000;2023-06-22T04:59:36;8.93;;;5.70;;
3261;SDS011;1643;47.746;9.000;2023-06-22T05:02:04;8.20;;;5.67;;
3261;SDS011;1643;47.746;9.000;2023-06-22T05:04:31;9.10;;;5.13;;
3261;SDS011;1643;47.746;9.000;2023-06-22T05:06:57;8.83;;;5.57;;
3261;SDS011;1643;47.746;9.000;2023-06-22T05:09:27;9.03;;;6.00;;
3261;SDS011;1643;47.746;9.000;2023-06-22T05:11:53;8.83;;;5.90;;
3261;SDS011;1643;47.746;9.000;2023-06-22T05:14:19;8.60;;;5.57;;
3261;SDS011;1643;47.746;9.000;2023-06-22T05:16:45;7.00;;;5.47;;
3261;SDS011;1643;47.746;9.000;2023-06-22T05:19:11;9.30;;;6.20;;
3261;SDS011;1643;47.746;9.000;2023-06-22T05:21:36;11.53;;;6.43;;
3261;SDS011;1643;47.746;9.000;2023-06-22T05:24:02;14.73;;;6.07;;
3261;SDS011;1643;47.746;9.000;2023-06-22T05:26:29;7.50;;;6.17;;
3261;SDS011;1643;47.746;9.000;2023-06-22T05:28:55;7.87;;;6.10;;
3261;SDS011;1643;47.746;9.000;2023-06-22T05:31:21;9.60;;;5.73;;
3261;SDS011;1643;47.746;9.000;2023-06-22T05:33:48;9.07;;;6.30;;
3261;SDS011;1643;47.746;9.000;2023-06-22T05:36:17;10.73;;;6.20;;
3261;SDS011;1643;47.746;9.000;2023-06-22T05:38:45;8.10;;;5.80;;
3261;SDS011;1643;47.746;9.000;2023-06-22T05:41:11;10.07;;;5.43;;
3261;SDS011;1643;47.746;9.000;2023-06-22T05:43:36;8.27;;;5.83;;
3261;SDS011;1643;47.746;9.000;2023-06-22T05:46:03;10.17;;;5.80;;
3261;SDS011;1643;47.746;9.000;2023-06-22T05:48:29;12.27;;;5.87;;
3261;SDS011;1643;47.746;9.000;2023-06-22T05:50:55;10.17;;;6.50;;
3261;SDS011;1643;47.746;9.000;2023-06-22T05:53:21;9.33;;;6.17;;
3261;SDS011;1643;47.746;9.000;2023-06-22T05:55:47;13.27;;;6.07;;
3261;SDS011;1643;47.746;9.000;2023-06-22T05:58:12;9.40;;;6.10;;
3261;SDS011;1643;47.746;9.000;2023-06-22T06:00:39;10.73;;;6.37;;
3261;SDS011;1643;47.746;9.000;2023-06-22T06:03:05;9.67;;;5.67;;
3261;SDS011;1643;47.746;9.000;2023-06-22T06:05:32;10.30;;;6.27;;
3261;SDS011;1643;47.746;9.000;2023-06-22T06:07:59;8.70;;;5.93;;
3261;SDS011;1643;47.746;9.000;2023-06-22T06:10:25;9.83;;;6.37;;
3261;SDS011;1643;47.746;9.000;2023-06-22T06:12:52;7.60;;;5.00;;
3261;SDS011;1643;47.746;9.000;2023-06-22T06:15:18;7.40;;;5.10;;
3261;SDS011;1643;47.746;9.000;2023-06-22T06:17:50;12.00;;;5.87;;
3261;SDS011;1643;47.746;9.000;2023-06-22T06:20:18;7.77;;;5.30;;
3261;SDS011;1643;47.746;9.000;2023-06-22T06:22:46;9.70;;;5.67;;
3261;SDS011;1643;47.746;9.000;2023-06-22T06:25:12;9.67;;;5.20;;
3261;SDS011;1643;47.746;9.000;2023-06-22T06:27:44;9.33;;;5.43;;
3261;SDS011;1643;47.746;9.000;2023-06-22T06:30:11;10.00;;;5.33;;
3261;SDS011;1643;47.746;9.000;2023-06-22T06:32:38;7.67;;;5.40;;
3261;SDS011;1643;47.746;9.000;2023-06-22T06:35:07;7.23;;;5.53;;
3261;SDS011;1643;47.746;9.000;2023-06-22T06:37:38;11.13;;;5.90;;
3261;SDS011;1643;47.746;9.000;2023-06-22T06:40:08;6.37;;;5.60;;
3261;SDS011;1643;47.746;9.000;2023-06-22T06:42:39;10.40;;;6.00;;
3261;SDS011;1643;47.746;9.000;2023-06-22T06:45:14;9.57;;;5.20;;
3261;SDS011;1643;47.746;9.000;2023-06-22T06:47:41;7.97;;;6.10;;
3261;SDS011;1643;47.746;9.000;2023-06-22T06:50:07;7.33;;;5.63;;
3261;SDS011;1643;47.746;9.000;2023-06-22T06:52:33;9.03;;;5.80;;
3261;SDS011;1643;47.746;9.000;2023-06-22T06:54:59;5.70;;;5.07;;
3261;SDS011;1643;47.746;9.000;2023-06-22T06:57:25;8.27;;;5.63;;
3261;SDS011;1643;47.746;9.000;2023-06-22T06:59:55;7.10;;;5.27;;
3261;SDS011;1643;47.746;9.000;2023-06-22T07:02:21;7.07;;;5.47;;
3261;SDS011;1643;47.746;9.000;2023-06-22T07:04:47;8.00;;;5.60;;
3261;SDS011;1643;47.746;9.000;2023-06-22T07:07:13;7.70;;;5.93;;
3261;SDS011;1643;47.746;9.000;2023-06-22T07:09:39;7.53;;;6.27;;
3261;SDS011;1643;47.746;9.000;2023-06-22T07:12:05;7.33;;;5.53;;
3261;SDS011;1643;47.746;9.000;2023-06-22T07:14:31;10.37;;;5.70;;
3261;SDS011;1643;47.746;9.000;2023-06-22T07:16:57;8.60;;;5.40;;
3261;SDS011;1643;47.746;9.000;2023-06-22T07:19:24;8.97;;;5.33;;
3261;SDS011;1643;47.746;9.000;2023-06-22T07:21:51;8.83;;;5.43;;
3261;SDS011;1643;47.746;9.000;2023-06-22T07:24:17;7.77;;;5.70;;
3261;SDS011;1643;47.746;9.000;2023-06-22T07:26:44;7.47;;;5.60;;
3261;SDS011;1643;47.746;9.000;2023-06-22T07:29:11;10.43;;;5.70;;
3261;SDS011;1643;47.746;9.000;2023-06-22T07:31:37;8.43;;;5.73;;
3261;SDS011;1643;47.746;9.000;2023-06-22T07:34:05;5.63;;;5.00;;
3261;SDS011;1643;47.746;9.000;2023-06-22T07:36:30;10.60;;;5.40;;
3261;SDS011;1643;47.746;9.000;2023-06-22T07:38:56;7.77;;;5.17;;
3261;SDS011;1643;47.746;9.000;2023-06-22T07:41:21;9.40;;;5.60;;
3261;SDS011;1643;47.746;9.000;2023-06-22T07:43:47;7.07;;;5.33;;
3261;SDS011;1643;47.746;9.000;2023-06-22T07:46:13;9.10;;;5.50;;
3261;SDS011;1643;47.746;9.000;2023-06-22T07:48:39;9.60;;;6.33;;
3261;SDS011;1643;47.746;9.000;2023-06-22T07:51:06;7.33;;;5.70;;
3261;SDS011;1643;47.746;9.000;2023-06-22T07:53:32;11.60;;;6.00;;
3261;SDS011;1643;47.746;9.000;2023-06-22T07:55:58;12.23;;;7.97;;
3261;SDS011;1643;47.746;9.000;2023-06-22T07:58:23;14.67;;;7.63;;
3261;SDS011;1643;47.746;9.000;2023-06-22T08:00:49;13.60;;;8.17;;
3261;SDS011;1643;47.746;9.000;2023-06-22T08:03:15;18.63;;;9.50;;
3261;SDS011;1643;47.746;9.000;2023-06-22T08:05:40;12.33;;;7.03;;
3261;SDS011;1643;47.746;9.000;2023-06-22T08:08:06;10.83;;;7.70;;
3261;SDS011;1643;47.746;9.000;2023-06-22T08:10:32;13.73;;;7.60;;
3261;SDS011;1643;47.746;9.000;2023-06-22T08:12:57;12.33;;;7.03;;
3261;SDS011;1643;47.746;9.000;2023-06-22T08:15:26;10.80;;;7.27;;
3261;SDS011;1643;47.746;9.000;2023-06-22T08:17:51;15.83;;;7.33;;
3261;SDS011;1643;47.746;9.000;2023-06-22T08:20:17;8.30;;;6.77;;
3261;SDS011;1643;47.746;9.000;2023-06-22T08:22:43;14.00;;;7.83;;
3261;SDS011;1643;47.746;9.000;2023-06-22T08:25:09;8.97;;;6.87;;
3261;SDS011;1643;47.746;9.000;2023-06-22T08:27:36;10.63;;;7.30;;
3261;SDS011;1643;47.746;9.000;2023-06-22T08:30:01;16.80;;;9.57;;
3261;SDS011;1643;47.746;9.000;2023-06-22T08:32:28;15.13;;;8.17;;
3261;SDS011;1643;47.746;9.000;2023-06-22T08:34:55;15.77;;;8.37;;
3261;SDS011;1643;47.746;9.000;2023-06-22T08:37:22;16.00;;;7.40;;
3261;SDS011;1643;47.746;9.000;2023-06-22T08:39:58;14.57;;;7.70;;
3261;SDS011;1643;47.746;9.000;2023-06-22T08:42:26;15.90;;;7.60;;
3261;SDS011;1643;47.746;9.000;2023-06-22T08:44:52;9.97;;;7.07;;
3261;SDS011;1643;47.746;9.000;2023-06-22T08:47:18;11.40;;;6.67;;
3261;SDS011;1643;47.746;9.000;2023-06-22T08:49:45;9.43;;;7.20;;
3261;SDS011;1643;47.746;9.000;2023-06-22T08:52:10;12.53;;;8.47;;
3261;SDS011;1643;47.746;9.000;2023-06-22T08:54:36;15.10;;;7.30;;
3261;SDS011;1643;47.746;9.000;2023-06-22T08:57:02;13.53;;;8.37;;
3261;SDS011;1643;47.746;9.000;2023-06-22T08:59:27;12.13;;;7.47;;
3261;SDS011;1643;47.746;9.000;2023-06-22T09:01:53;15.50;;;7.93;;
3261;SDS011;1643;47.746;9.000;2023-06-22T09:04:19;10.93;;;7.00;;
3261;SDS011;1643;47.746;9.000;2023-06-22T09:06:47;8.97;;;6.50;;
3261;SDS011;1643;47.746;9.000;2023-06-22T09:09:13;12.03;;;7.00;;
3261;SDS011;1643;47.746;9.000;2023-06-22T09:11:39;6.97;;;6.07;;
3261;SDS011;1643;47.746;9.000;2023-06-22T09:14:05;9.60;;;6.23;;
3261;SDS011;1643;47.746;9.000;2023-06-22T09:16:31;9.40;;;6.00;;
3261;SDS011;1643;47.746;9.000;2023-06-22T09:18:57;10.30;;;5.90;;
3261;SDS011;1643;47.746;9.000;2023-06-22T09:21:23;11.30;;;6.27;;
3261;SDS011;1643;47.746;9.000;2023-06-22T09:23:49;10.63;;;6.87;;
3261;SDS011;1643;47.746;9.000;2023-06-22T09:26:19;10.20;;;6.30;;
3261;SDS011;1643;47.746;9.000;2023-06-22T09:28:45;12.60;;;6.23;;
3261;SDS011;1643;47.746;9.000;2023-06-22T09:31:12;10.27;;;6.30;;
3261;SDS011;1643;47.746;9.000;2023-06-22T09:33:39;15.37;;;6.40;;
3261;SDS011;1643;47.746;9.000;2023-06-22T09:36:06;9.57;;;6.03;;
3261;SDS011;1643;47.746;9.000;2023-06-22T09:38:36;9.27;;;6.67;;
3261;SDS011;1643;47.746;9.000;2023-06-22T09:41:02;7.60;;;6.17;;
3261;SDS011;1643;47.746;9.000;2023-06-22T09:43:27;8.87;;;7.20;;
3261;SDS011;1643;47.746;9.000;2023-06-22T09:45:53;14.87;;;6.57;;
3261;SDS011;1643;47.746;9.000;2023-06-22T09:48:19;11.00;;;7.50;;
3261;SDS011;1643;47.746;9.000;2023-06-22T09:50:44;10.37;;;6.30;;
3261;SDS011;1643;47.746;9.000;2023-06-22T09:53:10;14.53;;;7.63;;
3261;SDS011;1643;47.746;9.000;2023-06-22T09:55:36;11.97;;;7.60;;
3261;SDS011;1643;47.746;9.000;2023-06-22T09:58:01;12.80;;;6.73;;
3261;SDS011;1643;47.746;9.000;2023-06-22T10:00:27;15.00;;;6.90;;
3261;SDS011;1643;47.746;9.000;2023-06-22T10:02:52;12.30;;;7.30;;
3261;SDS011;1643;47.746;9.000;2023-06-22T10:05:18;12.90;;;7.00;;
3261;SDS011;1643;47.746;9.000;2023-06-22T10:07:44;9.60;;;6.10;;
3261;SDS011;1643;47.746;9.000;2023-06-22T10:10:10;11.80;;;7.30;;
3261;SDS011;1643;47.746;9.000;2023-06-22T10:12:42;11.67;;;6.13;;
3261;SDS011;1643;47.746;9.000;2023-06-22T10:15:09;22.60;;;7.57;;
3261;SDS011;1643;47.746;9.000;2023-06-22T10:17:35;9.87;;;6.00;;
3261;SDS011;1643;47.746;9.000;2023-06-22T10:20:01;11.90;;;6.30;;
3261;SDS011;1643;47.746;9.000;2023-06-22T10:22:36;14.70;;;6.70;;
3261;SDS011;1643;47.746;9.000;2023-06-22T10:25:03;10.20;;;6.40;;
3261;SDS011;1643;47.746;9.000;2023-06-22T10:27:28;10.90;;;6.87;;
3261;SDS011;1643;47.746;9.000;2023-06-22T10:29:54;10.67;;;6.27;;
3261;SDS011;1643;47.746;9.000;2023-06-22T10:32:20;12.20;;;6.50;;
3261;SDS011;1643;47.746;9.000;2023-06-22T10:34:45;9.90;;;6.67;;
3261;SDS011;1643;47.746;9.000;2023-06-22T10:37:11;7.30;;;5.10;;
3261;SDS011;1643;47.746;9.000;2023-06-22T10:39:36;9.83;;;5.73;;
3261;SDS011;1643;47.746;9.000;2023-06-22T10:42:02;12.40;;;6.17;;
3261;SDS011;1643;47.746;9.000;2023-06-22T10:44:28;10.10;;;5.60;;
3261;SDS011;1643;47.746;9.000;2023-06-22T10:46:53;13.23;;;6.10;;
3261;SDS011;1643;47.746;9.000;2023-06-22T10:49:19;9.87;;;5.27;;
3261;SDS011;1643;47.746;9.000;2023-06-22T10:51:44;13.10;;;6.20;;
3261;SDS011;1643;47.746;9.000;2023-06-22T10:54:10;12.73;;;6.17;;
3261;SDS011;1643;47.746;9.000;2023-06-22T10:56:38;11.13;;;5.57;;
3261;SDS011;1643;47.746;9.000;2023-06-22T10:59:04;9.80;;;6.10;;
3261;SDS011;1643;47.746;9.000;2023-06-22T11:01:30;10.67;;;7.33;;
3261;SDS011;1643;47.746;9.000;2023-06-22T11:03:56;12.13;;;6.63;;
3261;SDS011;1643;47.746;9.000;2023-06-22T11:06:22;13.63;;;6.90;;
3261;SDS011;1643;47.746;9.000;2023-06-22T11:08:47;11.40;;;6.20;;
3261;SDS011;1643;47.746;9.000;2023-06-22T11:11:13;7.57;;;5.67;;
3261;SDS011;1643;47.746;9.000;2023-06-22T11:13:39;9.67;;;5.70;;
3261;SDS011;1643;47.746;9.000;2023-06-22T11:16:04;8.47;;;5.50;;
3261;SDS011;1643;47.746;9.000;2023-06-22T11:18:31;14.03;;;6.30;;
3261;SDS011;1643;47.746;9.000;2023-06-22T11:20:58;10.40;;;5.90;;
3261;SDS011;1643;47.746;9.000;2023-06-22T11:23:24;12.67;;;6.70;;
3261;SDS011;1643;47.746;9.000;2023-06-22T11:25:51;9.33;;;6.53;;
3261;SDS011;1643;47.746;9.000;2023-06-22T11:28:16;10.93;;;6.27;;
3261;SDS011;1643;47.746;9.000;2023-06-22T11:30:42;13.37;;;6.67;;
3261;SDS011;1643;47.746;9.000;2023-06-22T11:33:08;11.70;;;6.17;;
3261;SDS011;1643;47.746;9.000;2023-06-22T11:35:33;11.87;;;6.70;;
3261;SDS011;1643;47.746;9.000;2023-06-22T11:37:59;7.17;;;5.93;;
3261;SDS011;1643;47.746;9.000;2023-06-22T11:40:24;15.83;;;6.33;;
3261;SDS011;1643;47.746;9.000;2023-06-22T11:42:50;10.20;;;6.77;;
3261;SDS011;1643;47.746;9.000;2023-06-22T11:45:16;9.70;;;6.80;;
3261;SDS011;1643;47.746;9.000;2023-06-22T11:47:43;10.63;;;7.10;;
3261;SDS011;1643;47.746;9.000;2023-06-22T11:50:08;11.97;;;5.37;;
3261;SDS011;1643;47.746;9.000;2023-06-22T11:52:34;14.57;;;7.20;;
3261;SDS011;1643;47.746;9.000;2023-06-22T11:55:03;10.93;;;6.80;;
3261;SDS011;1643;47.746;9.000;2023-06-22T11:57:32;11.47;;;6.10;;
3261;SDS011;1643;47.746;9.000;2023-06-22T12:00:02;11.27;;;6.90;;
3261;SDS011;1643;47.746;9.000;2023-06-22T12:02:40;10.87;;;7.40;;
3261;SDS011;1643;47.746;9.000;2023-06-22T12:05:06;13.87;;;7.20;;
3261;SDS011;1643;47.746;9.000;2023-06-22T12:07:33;8.83;;;6.20;;
3261;SDS011;1643;47.746;9.000;2023-06-22T12:09:58;8.70;;;6.63;;
3261;SDS011;1643;47.746;9.000;2023-06-22T12:12:24;14.80;;;6.80;;
3261;SDS011;1643;47.746;9.000;2023-06-22T12:14:49;10.20;;;6.47;;
3261;SDS011;1643;47.746;9.000;2023-06-22T12:17:15;17.37;;;7.23;;
3261;SDS011;1643;47.746;9.000;2023-06-22T12:19:41;12.37;;;7.33;;
3261;SDS011;1643;47.746;9.000;2023-06-22T12:22:06;10.40;;;6.00;;
3261;SDS011;1643;47.746;9.000;2023-06-22T12:24:32;11.43;;;7.77;;
3261;SDS011;1643;47.746;9.000;2023-06-22T12:26:58;12.90;;;7.40;;
3261;SDS011;1643;47.746;9.000;2023-06-22T12:29:23;19.83;;;8.40;;
3261;SDS011;1643;47.746;9.000;2023-06-22T12:31:49;11.77;;;7.23;;
3261;SDS011;1643;47.746;9.000;2023-06-22T12:34:15;13.70;;;6.10;;
3261;SDS011;1643;47.746;9.000;2023-06-22T12:36:40;10.20;;;5.57;;
3261;SDS011;1643;47.746;9.000;2023-06-22T12:39:06;10.03;;;5.37;;
3261;SDS011;1643;47.746;9.000;2023-06-22T12:41:31;9.93;;;6.20;;
3261;SDS011;1643;47.746;9.000;2023-06-22T12:43:57;11.80;;;6.07;;
3261;SDS011;1643;47.746;9.000;2023-06-22T12:46:23;10.43;;;6.70;;
3261;SDS011;1643;47.746;9.000;2023-06-22T12:48:48;9.33;;;6.67;;
3261;SDS011;1643;47.746;9.000;2023-06-22T12:51:20;12.63;;;7.37;;
3261;SDS011;1643;47.746;9.000;2023-06-22T12:53:47;10.13;;;7.00;;
3261;SDS011;1643;47.746;9.000;2023-06-22T12:56:12;17.07;;;7.70;;
3261;SDS011;1643;47.746;9.000;2023-06-22T12:58:38;16.43;;;8.57;;
3261;SDS011;1643;47.746;9.000;2023-06-22T13:01:04;11.90;;;7.13;;
3261;SDS011;1643;47.746;9.000;2023-06-22T13:03:29;15.83;;;6.93;;
3261;SDS011;1643;47.746;9.000;2023-06-22T13:05:55;13.63;;;6.83;;
3261;SDS011;1643;47.746;9.000;2023-06-22T13:08:20;10.97;;;6.10;;
3261;SDS011;1643;47.746;9.000;2023-06-22T13:10:46;14.60;;;7.10;;
3261;SDS011;1643;47.746;9.000;2023-06-22T13:13:12;9.60;;;6.60;;
3261;SDS011;1643;47.746;9.000;2023-06-22T13:15:37;7.97;;;6.40;;
3261;SDS011;1643;47.746;9.000;2023-06-22T13:18:03;12.03;;;7.10;;
3261;SDS011;1643;47.746;9.000;2023-06-22T13:20:29;12.47;;;7.73;;
3261;SDS011;1643;47.746;9.000;2023-06-22T13:22:54;14.77;;;7.67;;
3261;SDS011;1643;47.746;9.000;2023-06-22T13:25:21;13.37;;;7.20;;
3261;SDS011;1643;47.746;9.000;2023-06-22T13:27:48;13.50;;;7.87;;
3261;SDS011;1643;47.746;9.000;2023-06-22T13:30:14;12.07;;;7.30;;
3261;SDS011;1643;47.746;9.000;2023-06-22T13:32:40;13.40;;;7.10;;
3261;SDS011;1643;47.746;9.000;2023-06-22T13:35:07;9.50;;;7.17;;
3261;SDS011;1643;47.746;9.000;2023-06-22T13:37:34;15.90;;;7.33;;
3261;SDS011;1643;47.746;9.000;2023-06-22T13:40:00;10.27;;;6.30;;
3261;SDS011;1643;47.746;9.000;2023-06-22T13:42:28;12.90;;;7.43;;
3261;SDS011;1643;47.746;9.000;2023-06-22T13:44:53;11.47;;;6.93;;
3261;SDS011;1643;47.746;9.000;2023-06-22T13:47:19;10.93;;;7.43;;
3261;SDS011;1643;47.746;9.000;2023-06-22T13:49:45;13.87;;;6.37;;
3261;SDS011;1643;47.746;9.000;2023-06-22T13:52:10;11.03;;;6.57;;
3261;SDS011;1643;47.746;9.000;2023-06-22T13:54:37;13.20;;;7.20;;
3261;SDS011;1643;47.746;9.000;2023-06-22T13:57:03;17.30;;;7.60;;
3261;SDS011;1643;47.746;9.000;2023-06-22T13:59:29;15.93;;;7.03;;
3261;SDS011;1643;47.746;9.000;2023-06-22T14:01:55;16.57;;;7.33;;
3261;SDS011;1643;47.746;9.000;2023-06-22T14:04:22;14.80;;;5.77;;
3261;SDS011;1643;47.746;9.000;2023-06-22T14:06:48;8.13;;;5.07;;
3261;SDS011;1643;47.746;9.000;2023-06-22T14:09:14;9.93;;;5.30;;
3261;SDS011;1643;47.746;9.000;2023-06-22T14:11:40;20.33;;;5.73;;
3261;SDS011;1643;47.746;9.000;2023-06-22T14:14:06;8.37;;;4.73;;
3261;SDS011;1643;47.746;9.000;2023-06-22T14:16:31;11.13;;;5.33;;
3261;SDS011;1643;47.746;9.000;2023-06-22T14:18:57;10.40;;;5.33;;
3261;SDS011;1643;47.746;9.000;2023-06-22T14:21:25;10.83;;;4.80;;
3261;SDS011;1643;47.746;9.000;2023-06-22T14:23:51;12.77;;;4.80;;
3261;SDS011;1643;47.746;9.000;2023-06-22T14:26:17;11.37;;;5.20;;
3261;SDS011;1643;47.746;9.000;2023-06-22T14:28:44;11.43;;;4.10;;
3261;SDS011;1643;47.746;9.000;2023-06-22T14:31:13;10.23;;;4.80;;
3261;SDS011;1643;47.746;9.000;2023-06-22T14:33:39;13.77;;;4.80;;
3261;SDS011;1643;47.746;9.000;2023-06-22T14:36:05;10.77;;;4.97;;
3261;SDS011;1643;47.746;9.000;2023-06-22T14:38:31;13.00;;;4.77;;
3261;SDS011;1643;47.746;9.000;2023-06-22T14:40:56;19.87;;;5.93;;
3261;SDS011;1643;47.746;9.000;2023-06-22T14:43:22;11.70;;;5.60;;
3261;SDS011;1643;47.746;9.000;2023-06-22T14:45:48;12.27;;;5.07;;
3261;SDS011;1643;47.746;9.000;2023-06-22T14:48:13;11.07;;;5.00;;
3261;SDS011;1643;47.746;9.000;2023-06-22T14:50:39;10.10;;;6.17;;
3261;SDS011;1643;47.746;9.000;2023-06-22T14:53:04;11.47;;;5.33;;
3261;SDS011;1643;47.746;9.000;2023-06-22T14:55:30;15.37;;;5.50;;
3261;SDS011;1643;47.746;9.000;2023-06-22T14:57:56;11.30;;;5.03;;
3261;SDS011;1643;47.746;9.000;2023-06-22T15:00:21;8.53;;;5.20;;
3261;SDS011;1643;47.746;9.000;2023-06-22T15:02:47;10.83;;;4.90;;
3261;SDS011;1643;47.746;9.000;2023-06-22T15:05:13;11.20;;;5.20;;
3261;SDS011;1643;47.746;9.000;2023-06-22T15:07:38;10.60;;;5.40;;
3261;SDS011;1643;47.746;9.000;2023-06-22T15:10:04;11.97;;;5.97;;
3261;SDS011;1643;47.746;9.000;2023-06-22T15:12:30;13.80;;;5.73;;
3261;SDS011;1643;47.746;9.000;2023-06-22T15:14:56;9.97;;;4.57;;